Drummond, Idaho
Current Conditions -  °F | °C
As of 3:56 PM on Friday 19 Dec 2014 (Local Time) from KDIJ Reporting Station
Light Snow Light Snow  
Wind Chill: 27°   Ceiling: 3000
Heat Index: 33°   Visibility: 10mi
Dew Point: 26°   Wind: 6mph
Humidity: 76%   Direction: 160°SSE
Pressure: 30.06"   Gusts: NA
Location:  44.0126°N, 111.37°W
Report Text: KDIJ 192256Z AUTO 16005KT 10SM -SN OVC030 01/M03 A3006 RMK AO2 T00051033 OVC V BKN UPB02E03SNE02B03E30B52 P0000 SLP176
Loading
Personal Weather Stations






























Interactive Weather Map New forecast layout! Learn more

10-Day Weather Forecast

Advertisements
Track Severe Weather on mobile